Latest Weather Observations for Merriwa

IDN60801

Issued at 3:32 pm EDT Monday 30 March 2015 (issued every 30 minutes, with the page automatically refreshed every 10 minutes)

About weather observations | Map of weather stations | Latest weather observations for NSW | Other Formats
Station Details ID: 061287 Name: MERRIWA (ROSCOMMON) Lat: -32.19 Lon: 150.17 Height: 375.0 m
Data from the previous 72 hours. | See also: Recent months at Merriwa
Date/Time
EDT
Temp
°C
App
Temp
°C
Dew
Point
Rel
Hum
%
Delta-T
°C
Wind Press
QNH
hPa
Press
MSL
hPa
Rain
since 9 am
mm
Dir
 
Spd
km/h
Gust
km/h
Spd
kts
Gust
kts
30/03:30pm 25.7 22.8 8.2 33 9.5 ESE 13 20 7 11 1021.3 1020.0 0.0
30/03:00pm 25.5 23.1 7.1 31 9.8 ENE 9 15 5 8 1021.5 1020.2 0.0
30/02:30pm 25.3 22.2 7.4 32 9.6 E 13 20 7 11 1021.6 1020.3 0.0
30/02:00pm 25.2 22.8 8.7 35 9.0 SE 11 17 6 9 1022.0 1020.8 0.0
30/01:30pm 25.3 23.0 7.4 32 9.6 ESE 9 15 5 8 1022.3 1021.1 0.0
30/01:00pm 26.0 23.2 8.5 33 9.6 E 13 28 7 15 1022.6 1021.4 0.0
30/12:30pm 26.3 24.3 10.0 36 9.2 E 11 24 6 13 1023.1 1021.8 0.0
30/12:00pm 26.0 23.9 12.5 43 7.9 ESE 15 22 8 12 1023.7 1022.4 0.0
30/11:30am 25.1 23.5 12.7 46 7.3 E 13 19 7 10 1024.1 1022.8 0.0
30/11:00am 23.9 21.5 9.9 41 7.8 ENE 13 19 7 10 1024.5 1023.3 0.0
30/10:30am 21.4 20.6 14.1 63 4.3 ENE 11 15 6 8 1024.7 1023.5 0.0
30/10:00am 20.8 19.8 14.5 67 3.7 ENE 13 17 7 9 1025.0 1023.8 0.0
30/09:30am 19.2 18.8 15.3 78 2.3 E 11 15 6 8 1025.1 1023.9 0.0
30/09:00am 17.8 17.3 14.9 83 1.7 E 11 17 6 9 1025.0 1023.8 0.0
30/08:30am 17.8 17.2 14.7 82 1.8 S 11 15 6 8 1024.5 1023.3 0.0
30/08:00am 16.7 16.6 14.0 84 1.6 S 7 13 4 7 1024.4 1023.2 0.0
30/07:30am 16.2 16.1 14.0 87 1.3 SW 7 11 4 6 1023.9 1022.6 0.0
30/07:00am 16.6 16.6 14.1 85 1.4 NE 7 11 4 6 1023.7 1022.4 0.0
30/06:30am 16.4 15.8 13.5 83 1.7 ENE 9 11 5 6 1023.8 1022.5 0.0
30/06:00am 16.8 15.8 13.5 81 1.9 NNW 11 15 6 8 1023.8 1022.5 0.0
30/05:30am 17.2 16.5 13.1 77 2.3 NW 9 13 5 7 1023.1 1021.8 0.0
30/05:00am 17.4 16.5 13.7 79 2.1 W 11 20 6 11 1022.3 1021.1 0.0
30/04:30am 16.7 16.4 12.8 78 2.2 SW 6 9 3 5 1022.0 1020.8 0.0
30/04:00am 17.3 15.3 13.8 80 2.0 WSW 17 30 9 16 1022.3 1021.1 0.0
30/03:30am 16.9 16.9 13.6 81 1.9 S 6 13 3 7 1021.9 1020.6 0.0
30/03:00am 17.4 17.7 14.5 83 1.7 WNW 6 11 3 6 1022.5 1021.3 0.0
30/02:30am 18.2 17.7 14.9 81 2.0 ESE 11 15 6 8 1022.6 1021.4 0.0
30/02:00am 17.5 16.8 14.4 82 1.8 NNW 11 17 6 9 1023.3 1022.0 0.0
30/01:30am 17.2 17.2 13.5 79 2.1 ESE 6 11 3 6 1022.5 1021.3 0.0
30/01:00am 17.5 18.6 13.4 77 2.3 CALM 0 0 0 0 1022.6 1021.4 0.0
30/12:30am 17.6 18.4 12.7 73 2.8 CALM 0 0 0 0 1023.0 1021.7 0.0
30/12:00am 18.0 17.6 12.9 72 2.9 ESE 7 9 4 5 1023.3 1022.0 0.0
 
Date/Time
EDT
Temp
°C
App
Temp
°C
Dew
Point
Rel
Hum
%
Delta-T
°C
Wind Press
QNH
hPa
Press
MSL
hPa
Rain
since 9 am
mm
Dir
 
Spd
km/h
Gust
km/h
Spd
kts
Gust
kts
29/11:30pm 18.1 17.4 11.9 67 3.5 SSE 7 9 4 5 1023.2 1021.9 0.0
29/11:00pm 17.8 17.0 11.1 65 3.7 SSE 6 7 3 4 1023.3 1022.0 0.0
29/10:30pm 18.8 16.8 11.6 63 4.0 ESE 13 15 7 8 1023.3 1022.0 0.0
29/10:00pm 18.5 15.6 6.4 45 6.1 ESE 11 15 6 8 1023.2 1021.9 0.0
29/09:30pm 19.8 16.8 5.8 40 7.1 E 11 17 6 9 1022.8 1021.6 0.0
29/09:00pm 19.2 16.3 4.9 39 7.0 SE 9 15 5 8 1022.2 1021.0 0.0
29/08:30pm 18.3 16.5 3.4 37 7.1 SE 2 7 1 4 1021.7 1020.4 0.0
29/08:00pm 20.2 17.6 3.4 33 8.1 W 6 6 3 3 1021.6 1020.3 0.0
29/07:30pm 20.0 17.5 3.7 34 7.9 W 6 7 3 4 1021.5 1020.2 0.0
29/07:00pm 23.2 20.4 3.2 27 9.8 W 7 9 4 5 1021.0 1019.7 0.0
29/06:30pm 25.6 23.1 3.5 24 11.1 W 6 7 3 4 1021.0 1019.7 0.0
29/06:00pm 26.7 23.4 2.6 21 12.0 WSW 9 15 5 8 1020.7 1019.4 0.0
29/05:30pm 27.7 24.4 2.7 20 12.5 W 9 13 5 7 1020.7 1019.4 0.0
29/05:00pm 28.3 24.0 3.2 20 12.7 WNW 15 26 8 14 1020.7 1019.4 0.0
29/04:30pm 28.6 25.0 4.8 22 12.5 WNW 13 22 7 12 1020.7 1019.4 0.0
29/04:00pm 28.1 24.5 5.0 23 12.1 WNW 13 20 7 11 1020.9 1019.6 0.0
29/03:30pm 28.1 24.3 5.6 24 11.9 WNW 15 20 8 11 1021.1 1019.8 0.0
29/03:00pm 28.1 25.3 6.8 26 11.5 N 11 22 6 12 1021.3 1020.0 0.0
29/02:30pm 26.5 23.2 6.5 28 10.6 W 13 22 7 12 1021.8 1020.5 0.0
29/02:00pm 25.8 22.8 7.9 32 9.7 WSW 13 19 7 10 1022.2 1021.0 0.0
29/01:30pm 25.3 22.4 8.3 34 9.3 SW 13 19 7 10 1022.7 1021.5 0.0
29/01:00pm 25.3 23.5 10.7 40 8.3 SSW 11 17 6 9 1023.1 1021.8 0.0
29/12:30pm 24.3 23.4 11.3 44 7.4 S 7 11 4 6 1023.7 1022.4 0.0
29/12:00pm 23.1 22.3 11.8 49 6.5 ENE 7 15 4 8 1024.0 1022.7 0.0
29/11:30am 22.1 21.1 12.4 54 5.6 ESE 9 13 5 7 1024.1 1022.8 0.0
29/11:00am 20.8 20.3 12.5 59 4.7 N 7 13 4 7 1024.4 1023.2 0.0
29/10:30am 19.5 18.6 12.7 65 3.9 SE 9 13 5 7 1024.5 1023.3 0.0
29/10:00am 18.8 17.2 12.8 68 3.4 ESE 13 20 7 11 1024.6 1023.4 0.0
29/09:30am 17.6 16.4 12.7 73 2.8 ESE 11 17 6 9 1024.7 1023.5 0.0
29/09:00am 16.6 15.8 12.9 79 2.1 NE 9 13 5 7 1024.8 1023.6 0.0
29/08:30am 13.9 14.8 13.0 94 0.5 CALM 0 0 0 0 1024.5 1023.3 0.0
29/08:00am 11.8 12.3 11.5 98 0.2 CALM 0 0 0 0 1024.0 1022.7 0.0
29/07:30am 11.6 11.3 11.3 98 0.2 SE 4 6 2 3 1023.7 1022.4 0.0
29/07:00am 11.5 10.7 11.2 98 0.2 SE 6 7 3 4 1023.2 1021.9 0.0
29/06:30am 11.5 10.7 11.2 98 0.2 SE 6 7 3 4 1022.7 1021.5 0.0
29/06:00am 11.6 10.8 11.1 97 0.3 SE 6 7 3 4 1022.2 1021.0 0.0
29/05:30am 11.8 10.9 11.3 97 0.3 SE 7 9 4 5 1022.3 1021.1 0.0
29/05:00am 11.7 12.0 10.9 95 0.4 CALM 0 0 0 0 1022.3 1021.1 0.0
29/04:30am 11.6 10.7 10.8 95 0.4 SE 6 7 3 4 1022.2 1021.0 0.0
29/04:00am 11.9 12.3 11.3 96 0.3 CALM 0 6 0 3 1022.3 1021.1 0.0
29/03:30am 11.6 11.9 10.8 95 0.4 CALM 0 0 0 0 1022.5 1021.3 0.0
29/03:00am 11.9 12.2 11.0 94 0.5 CALM 0 0 0 0 1022.6 1021.4 0.0
29/02:30am 11.8 11.8 9.9 88 1.0 CALM 0 6 0 3 1022.7 1021.5 0.0
29/02:00am 12.5 11.2 10.0 85 1.3 SE 7 9 4 5 1023.0 1021.7 0.0
29/01:30am 13.6 12.3 11.1 85 1.3 SE 9 11 5 6 1023.1 1021.8 0.0
29/01:00am 13.7 12.3 10.9 83 1.5 SE 9 11 5 6 1023.2 1021.9 0.0
29/12:30am 14.2 12.6 11.7 85 1.4 ESE 11 15 6 8 1023.0 1021.7 0.0
29/12:00am 13.5 11.7 10.7 83 1.5 ESE 11 13 6 7 1023.1 1021.8 0.0
 
Date/Time
EDT
Temp
°C
App
Temp
°C
Dew
Point
Rel
Hum
%
Delta-T
°C
Wind Press
QNH
hPa
Press
MSL
hPa
Rain
since 9 am
mm
Dir
 
Spd
km/h
Gust
km/h
Spd
kts
Gust
kts
28/11:30pm 14.8 12.5 11.6 81 1.8 SE 15 20 8 11 1023.1 1021.8 0.0
28/11:00pm 14.7 12.2 11.1 79 1.9 ESE 15 22 8 12 1023.3 1022.0 0.0
28/10:30pm 15.6 12.7 11.0 74 2.5 ESE 17 22 9 12 1023.4 1022.1 0.0
28/10:00pm 16.4 13.2 11.3 72 2.8 ESE 19 24 10 13 1023.2 1021.9 0.0
28/09:30pm 16.6 14.8 10.7 68 3.2 E 11 17 6 9 1023.2 1021.9 0.0
28/09:00pm 18.0 15.1 11.1 64 3.8 E 17 24 9 13 1022.5 1021.3 0.0
28/08:30pm 18.0 15.0 7.7 51 5.3 E 13 20 7 11 1022.1 1020.9 0.0
28/08:00pm 16.1 13.1 1.8 38 6.4 ENE 7 11 4 6 1021.5 1020.2 0.0
28/07:30pm 17.2 13.3 1.2 34 7.2 E 11 15 6 8 1021.4 1020.1 0.0
28/07:00pm 19.2 14.9 1.2 30 8.2 ESE 13 19 7 10 1020.9 1019.6 0.0
28/06:30pm 22.8 19.1 2.3 26 9.9 ESE 11 15 6 8 1020.8 1019.5 0.0
28/06:00pm 24.1 20.1 0.4 21 11.1 ESE 11 19 6 10 1020.4 1019.1 0.0
28/05:30pm 25.0 21.6 -0.9 18 11.9 ENE 7 11 4 6 1020.5 1019.2 0.0
28/05:00pm 25.3 21.2 0.0 19 11.9 E 11 24 6 13 1020.6 1019.3 0.0
28/04:30pm 25.0 21.7 -0.2 19 11.8 SSE 7 15 4 8 1020.7 1019.4 0.0
28/04:00pm 25.2 21.6 0.7 20 11.6 ENE 9 17 5 9 1020.8 1019.5 0.0
28/03:30pm 25.0 21.6 1.8 22 11.2 SW 9 15 5 8 1021.0 1019.7 0.0
28/03:00pm 23.9 19.7 1.5 23 10.7 ENE 13 20 7 11 1021.5 1020.2 0.0
28/02:30pm 24.0 19.7 3.3 26 10.2 SE 15 22 8 12 1021.6 1020.3 0.0
28/02:00pm 24.4 22.1 5.7 30 9.7 ESE 7 17 4 9 1021.9 1020.6 0.0
28/01:30pm 23.2 20.4 3.2 27 9.8 N 7 17 4 9 1022.4 1021.2 0.0
28/01:00pm 22.8 19.8 4.3 30 9.2 SE 9 19 5 10 1022.8 1021.6 0.0
28/12:30pm 21.4 18.0 4.0 32 8.6 ENE 11 17 6 9 1023.4 1022.1 0.0
28/12:00pm 20.6 17.2 4.2 34 8.0 ESE 11 19 6 10 1023.7 1022.4 0.0
28/11:30am 20.7 16.7 4.7 35 7.9 ESE 15 22 8 12 1024.0 1022.7 0.0
28/11:00am 19.5 16.3 5.2 39 7.1 E 11 19 6 10 1024.2 1022.9 0.0
28/10:30am 17.7 14.9 5.0 43 6.2 SE 9 17 5 9 1024.4 1023.2 0.0
28/10:00am 17.3 15.1 5.3 45 5.9 ESE 6 11 3 6 1024.3 1023.1 0.0
28/09:30am 15.3 13.0 4.9 50 5.0 SW 6 7 3 4 1024.4 1023.2 0.0
28/09:00am 14.3 11.6 5.4 55 4.3 WNW 9 11 5 6 1024.2 1022.9 0.0
28/08:30am 12.2 10.0 6.3 67 2.8 WNW 7 9 4 5 1023.9 1022.6 0.0
28/08:00am 10.1 9.1 5.7 74 2.1 CALM 0 0 0 0 1023.6 1022.3 0.0
28/07:30am 7.4 5.4 4.2 80 1.4 NW 4 7 2 4 1023.2 1021.9 0.0
28/07:00am 7.1 3.9 3.2 76 1.7 W 9 11 5 6 1023.1 1021.8 0.0
28/06:30am 8.5 5.4 3.8 72 2.1 WNW 9 11 5 6 1022.6 1021.4 0.0
28/06:00am 9.1 6.0 3.7 69 2.4 WNW 9 9 5 5 1022.3 1021.1 0.0
28/05:30am 9.8 6.4 4.2 68 2.5 WNW 11 15 6 8 1022.0 1020.8 0.0
28/05:00am 9.6 5.9 4.2 69 2.4 WNW 13 15 7 8 1021.8 1020.5 0.0
28/04:30am 9.6 5.8 4.0 68 2.5 NW 13 15 7 8 1021.7 1020.4 0.0
28/04:00am 10.4 7.4 4.1 65 2.8 NW 9 11 5 6 1021.7 1020.4 0.0
28/03:30am 10.1 7.5 4.0 66 2.8 NNW 7 9 4 5 1021.9 1020.6 0.0
28/03:00am 10.4 7.4 3.9 64 2.9 NW 9 11 5 6 1022.1 1020.9 0.0
28/02:30am 11.7 8.0 4.2 60 3.4 WNW 13 15 7 8 1022.0 1020.8 0.0
28/02:00am 12.4 8.6 4.1 57 3.8 WNW 13 15 7 8 1022.1 1020.9 0.0
28/01:30am 12.7 8.6 4.2 56 3.9 WNW 15 17 8 9 1022.1 1020.9 0.0
28/01:00am 12.5 8.3 4.0 56 3.9 WNW 15 17 8 9 1022.1 1020.9 0.0
28/12:30am 13.2 9.4 4.1 54 4.2 WNW 13 17 7 9 1022.3 1021.1 0.0
28/12:00am 12.8 9.6 3.2 52 4.3 NW 9 11 5 6 1022.4 1021.2 0.0
 
Date/Time
EDT
Temp
°C
App
Temp
°C
Dew
Point
Rel
Hum
%
Delta-T
°C
Wind Press
QNH
hPa
Press
MSL
hPa
Rain
since 9 am
mm
Dir
 
Spd
km/h
Gust
km/h
Spd
kts
Gust
kts
27/11:30pm 12.5 9.4 3.5 54 4.1 NW 9 11 5 6 1022.5 1021.3 0.0
27/11:00pm 12.3 10.5 3.3 54 4.1 W 2 7 1 4 1022.4 1021.2 0.0
27/10:30pm 11.9 8.6 2.6 53 4.1 WNW 9 11 5 6 1022.3 1021.1 0.0
27/10:00pm 15.3 11.9 2.1 41 5.9 WSW 9 13 5 7 1022.0 1020.8 0.0
27/09:30pm 15.3 11.8 1.1 38 6.3 SW 9 13 5 7 1021.6 1020.3 0.0
27/09:00pm 17.4 13.1 1.0 33 7.4 WSW 13 17 7 9 1021.5 1020.2 0.0
27/08:30pm 17.3 13.0 1.3 34 7.2 WSW 13 15 7 8 1021.2 1019.9 0.0
27/08:00pm 18.2 14.3 1.3 32 7.7 W 11 13 6 7 1020.8 1019.5 0.0
27/07:30pm 18.6 14.6 0.7 30 8.1 W 11 13 6 7 1020.5 1019.2 0.0
27/07:00pm 20.6 15.4 0.4 26 9.2 W 17 24 9 13 1020.1 1018.8 0.0
27/06:30pm 22.3 17.2 0.8 24 10.0 W 17 26 9 14 1019.7 1018.5 0.0
27/06:00pm 23.3 17.9 1.0 23 10.5 W 19 30 10 16 1019.5 1018.2 0.0
27/05:30pm 24.1 18.2 1.7 23 10.8 WNW 22 33 12 18 1019.3 1018.0 0.0
27/05:00pm 24.3 18.3 1.2 22 11.0 WNW 22 32 12 17 1019.2 1017.9 0.0
27/04:30pm 24.6 19.1 2.1 23 10.9 W 20 30 11 16 1019.2 1017.9 0.0
27/04:00pm 24.6 18.7 1.5 22 11.1 W 22 32 12 17 1019.3 1018.0 0.0

Other Formats:

Comma delimited format used in spreadsheet applications
http://www.bom.gov.au/fwo/IDN60801/IDN60801.95754.axf

JavaScript Object Notation format (JSON) in row-major order
http://www.bom.gov.au/fwo/IDN60801/IDN60801.95754.json